createdAt,value
2023-05-12T05:05:14.146Z,97857.63
2023-05-12T05:10:15.705Z,97852.44
2023-05-12T05:15:19.794Z,97862.78
2023-05-12T05:20:27.846Z,97866.06
2023-05-12T05:25:31.248Z,97866.88
2023-05-12T05:30:32.934Z,97871.41
2023-05-12T05:35:35.912Z,97874.69
2023-05-12T05:40:51.509Z,97870.50
2023-05-12T05:45:55.823Z,97873.34
2023-05-12T05:50:57.481Z,97880.97
2023-05-12T05:56:00.022Z,97887.13
2023-05-12T06:01:02.144Z,97891.41
2023-05-12T06:06:04.312Z,97888.09
2023-05-12T06:11:05.805Z,97888.44
2023-05-12T06:16:07.357Z,97895.25
2023-05-12T06:21:09.500Z,97890.25
2023-05-12T06:26:11.724Z,97902.84
2023-05-12T06:31:13.305Z,97901.16
2023-05-12T06:36:14.724Z,97907.31
2023-05-12T06:41:16.307Z,97909.38
2023-05-12T06:46:18.572Z,97907.22
2023-05-12T06:51:20.052Z,97912.31
2023-05-12T06:56:23.106Z,97918.28
2023-05-12T07:01:24.573Z,97916.34
2023-05-12T07:06:28.890Z,97911.13
2023-05-12T07:11:30.538Z,97911.88
2023-05-12T07:16:32.408Z,97905.84
2023-05-12T07:21:36.671Z,97899.38
2023-05-12T07:26:38.107Z,97911.38
2023-05-12T07:31:39.717Z,97905.97
2023-05-12T07:36:41.190Z,97913.03
2023-05-12T07:41:42.852Z,97910.66
2023-05-12T07:46:44.966Z,97912.22
2023-05-12T07:51:46.417Z,97913.13
2023-05-12T07:56:47.945Z,97912.34
2023-05-12T08:01:49.657Z,97922.84
2023-05-12T08:06:51.732Z,97919.00
2023-05-12T08:11:53.213Z,97914.50
2023-05-12T08:16:54.690Z,97910.69
2023-05-12T08:21:56.213Z,97917.41
2023-05-12T08:26:57.666Z,97924.34
2023-05-12T08:31:59.402Z,97914.22
2023-05-12T08:37:01.296Z,97917.91
2023-05-12T08:42:09.299Z,97914.81
2023-05-12T08:47:12.185Z,97917.88
2023-05-12T08:52:14.453Z,97913.81
2023-05-12T08:57:16.222Z,97920.06
2023-05-12T09:02:20.152Z,97917.09
2023-05-12T09:07:26.511Z,97923.34
2023-05-12T09:12:33.609Z,97912.63
2023-05-12T09:17:36.205Z,97917.91
2023-05-12T09:22:39.246Z,97924.75
2023-05-12T09:27:40.998Z,97925.91
2023-05-12T09:32:42.441Z,97928.38
2023-05-12T09:37:44.204Z,97931.97
2023-05-12T09:42:46.479Z,97924.63
2023-05-12T09:47:47.962Z,97934.41
2023-05-12T09:52:50.322Z,97913.84
2023-05-12T09:57:52.901Z,97926.63
2023-05-12T10:02:54.701Z,97930.44
2023-05-12T10:07:59.610Z,97917.97
2023-05-12T10:13:01.271Z,97926.03
2023-05-12T10:18:03.028Z,97928.03
2023-05-12T10:23:06.301Z,97919.78
2023-05-12T10:28:08.687Z,97921.44
2023-05-12T10:33:11.412Z,97928.25
2023-05-12T10:38:19.624Z,97916.97
2023-05-12T10:43:23.729Z,97917.97
2023-05-12T10:48:25.196Z,97923.03
2023-05-12T10:53:47.672Z,97920.50
2023-05-12T10:59:21.573Z,97924.00
2023-05-12T11:04:25.195Z,97931.09
2023-05-12T11:09:27.232Z,97914.47
2023-05-12T11:14:29.137Z,97921.16
2023-05-12T11:19:31.781Z,97902.75
2023-05-12T11:24:33.917Z,97904.63
2023-05-12T11:29:35.391Z,97914.69
2023-05-12T11:34:38.690Z,97906.75
2023-05-12T11:39:41.224Z,97901.81
2023-05-12T11:44:49.323Z,97908.25
2023-05-12T11:49:55.114Z,97911.16
2023-05-12T11:55:00.608Z,97918.00
2023-05-12T12:00:05.467Z,97918.22
2023-05-12T12:05:18.134Z,97918.41
2023-05-12T12:10:20.254Z,97921.56
2023-05-12T12:15:22.155Z,97932.66
2023-05-12T12:20:24.835Z,97939.44
2023-05-12T12:25:26.379Z,97942.00
2023-05-12T12:30:27.883Z,97933.69
2023-05-12T12:35:29.342Z,97942.25
2023-05-12T12:40:30.817Z,97948.63
2023-05-12T12:45:32.285Z,97940.47
2023-05-12T12:50:35.464Z,97932.75
2023-05-12T12:55:37.321Z,97939.19
2023-05-12T13:00:39.039Z,97954.59
2023-05-12T13:05:40.796Z,97946.47
2023-05-12T13:10:42.390Z,97945.56
2023-05-12T13:15:43.839Z,97949.69
2023-05-12T13:20:45.559Z,97951.44
2023-05-12T13:25:48.765Z,97943.03
2023-05-12T13:30:52.551Z,97924.69
2023-05-12T13:35:55.073Z,97926.16
2023-05-12T13:40:57.072Z,97932.94
2023-05-12T13:45:58.520Z,97929.13
2023-05-12T13:50:59.995Z,97937.28
2023-05-12T13:56:01.651Z,97929.50
2023-05-12T14:01:03.213Z,97932.28
2023-05-12T14:06:06.178Z,97929.81
2023-05-12T14:11:08.449Z,97932.47
2023-05-12T14:16:12.689Z,97934.06
2023-05-12T14:21:14.267Z,97933.81
2023-05-12T14:26:15.825Z,97930.59
2023-05-12T14:31:17.506Z,97936.06
2023-05-12T14:36:19.241Z,97936.94
2023-05-12T14:41:24.221Z,97936.22
2023-05-12T14:46:26.655Z,97940.78
2023-05-12T14:51:29.032Z,97966.44
2023-05-12T14:56:30.614Z,97973.22
2023-05-12T15:01:32.091Z,97979.66
2023-05-12T15:06:33.751Z,97981.25
2023-05-12T15:11:36.768Z,97977.81
2023-05-12T15:16:38.234Z,97971.84
2023-05-12T15:21:39.697Z,97968.47
2023-05-12T15:26:41.146Z,97964.34
2023-05-12T15:31:43.333Z,97957.53
2023-05-12T15:36:45.650Z,97956.47
2023-05-12T15:41:47.108Z,97963.88
2023-05-12T15:46:48.688Z,97954.50
2023-05-12T15:51:50.286Z,97939.44
2023-05-12T15:56:51.852Z,97942.31
2023-05-12T16:01:53.350Z,97940.31
2023-05-12T16:06:55.822Z,97938.63
2023-05-12T16:11:57.740Z,97936.81
2023-05-12T16:16:59.161Z,97925.78
2023-05-12T16:22:00.682Z,97950.94
2023-05-12T16:27:02.148Z,97969.34
2023-05-12T16:32:03.716Z,97970.34
2023-05-12T16:37:05.602Z,97959.28
2023-05-12T16:42:07.129Z,97931.53
2023-05-12T16:47:08.575Z,97946.03
2023-05-12T16:52:12.340Z,97944.75
2023-05-12T16:57:14.031Z,97948.06
2023-05-12T17:02:16.063Z,97959.91
2023-05-12T17:07:17.418Z,97963.75
2023-05-12T17:12:18.919Z,97975.09
2023-05-12T17:17:20.337Z,97985.91
2023-05-12T17:22:21.869Z,98001.44
2023-05-12T17:27:23.353Z,97994.72
2023-05-12T17:32:24.796Z,98006.66
2023-05-12T17:37:26.433Z,98001.31
2023-05-12T17:42:31.037Z,97995.28
2023-05-12T17:47:32.525Z,98002.66
2023-05-12T17:52:34.192Z,97995.91
2023-05-12T17:57:35.634Z,98002.25
2023-05-12T18:02:38.037Z,98003.50
2023-05-12T18:07:40.018Z,98004.56
2023-05-12T18:12:41.553Z,98002.91
2023-05-12T18:17:43.198Z,98002.78
2023-05-12T18:22:44.792Z,98002.59
2023-05-12T18:27:46.291Z,97997.97
2023-05-12T18:32:47.813Z,98000.22
2023-05-12T18:37:50.369Z,98010.72
2023-05-12T18:42:51.812Z,98011.22
2023-05-12T18:47:53.365Z,98021.28
2023-05-12T18:52:54.953Z,98024.63
2023-05-12T18:57:56.392Z,98027.56
2023-05-12T19:02:58.494Z,98029.88
2023-05-12T19:07:59.866Z,98028.06
2023-05-12T19:13:01.359Z,98032.31
2023-05-12T19:18:02.913Z,98038.63
2023-05-12T19:23:04.441Z,98052.00
2023-05-12T19:28:05.931Z,98057.28
2023-05-12T19:33:07.569Z,98060.47
2023-05-12T19:38:09.017Z,98067.00
2023-05-12T19:43:10.689Z,98063.53
2023-05-12T19:48:12.253Z,98075.19
2023-05-12T19:53:13.796Z,98076.91
2023-05-12T19:58:15.319Z,98092.25
2023-05-12T20:03:16.938Z,98084.81
2023-05-12T20:08:18.546Z,98096.84
2023-05-12T20:13:20.030Z,98099.38
2023-05-12T20:18:23.059Z,98096.69
2023-05-12T20:23:24.738Z,98093.59
2023-05-12T20:28:26.558Z,98095.28
2023-05-12T20:33:27.988Z,98105.00
2023-05-12T20:38:29.541Z,98105.63
2023-05-12T20:43:35.279Z,98099.78
2023-05-12T20:48:36.782Z,98108.88
2023-05-12T20:53:38.544Z,98097.47
2023-05-12T20:58:39.989Z,98097.66
2023-05-12T21:03:41.947Z,98093.47
2023-05-12T21:08:43.508Z,98101.28
2023-05-12T21:13:46.835Z,98101.88
2023-05-12T21:18:48.373Z,98119.38
2023-05-12T21:23:49.879Z,98111.09
2023-05-12T21:28:51.354Z,98116.81
2023-05-12T21:33:53.012Z,98121.94
2023-05-12T21:38:54.466Z,98117.16
2023-05-12T21:43:56.054Z,98122.72
2023-05-12T21:48:57.504Z,98121.22
2023-05-12T21:53:59.562Z,98122.91
2023-05-12T21:59:01.452Z,98131.97
